Hlavní strana
METAR-TAF:

METAR-TAF

Letiště :

Madison, Indiana, Spojené státy americké

zeměpisná šířka: 38-45-36N, zeměpisná délka: 085-27-53W, výška: 250 m

Aktuální stav počasí

Zpráva byla vytvořena před 17 minutami, v 04:55 UTC
Západoseverozápadní vítr 5 kt
Teplota 21°C
Vlhkost vzduchu 94%
Tlak 1016 hPa
Viditelnost: 16.1 km
Zataženo ve výšce 4200 ft

METAR: KIMS 220455Z AUTO 30005KT 10SM OVC042 21/20 A3000 RMK AO1

Čas: 01:12 (05:12 UTC)


TAF: chybějící

Stav a předpovědi počasí z více než 4 000 letišť (zprávy METAR a TAF).

Červené a žluté tečky na mapě představují dostupné meteorologické stanice.

Když kurzor umístíte na tečku, zobrazí se název stanice.

Pak kliknutím zobrazíte stav a předpověď počasí.

Chcete-li změnit mapu, kliknutím na zelené tlačítko se znaménkem +mapu přiblížíte, kliknutím na zelené tlačítko se znaménkem – mapu oddálíte a kliknutím na zelené šipky přejdete na sousední mapy.


METAR-TAF: